sensor_id;sensor_type;location;lat;lon;timestamp;temperature;humidity
7384;DHT22;3733;47.994;8.820;2023-04-03T00:01:00;4.90;99.90
7384;DHT22;3733;47.994;8.820;2023-04-03T00:03:26;4.90;99.90
7384;DHT22;3733;47.994;8.820;2023-04-03T00:05:51;4.90;99.90
7384;DHT22;3733;47.994;8.820;2023-04-03T00:08:17;5.00;99.90
7384;DHT22;3733;47.994;8.820;2023-04-03T00:10:43;5.00;99.90
7384;DHT22;3733;47.994;8.820;2023-04-03T00:13:09;5.00;99.90
7384;DHT22;3733;47.994;8.820;2023-04-03T00:15:35;4.90;99.90
7384;DHT22;3733;47.994;8.820;2023-04-03T00:18:02;4.90;99.90
7384;DHT22;3733;47.994;8.820;2023-04-03T00:20:28;4.80;99.90
7384;DHT22;3733;47.994;8.820;2023-04-03T00:22:54;4.80;99.90
7384;DHT22;3733;47.994;8.820;2023-04-03T00:25:20;4.80;99.90
7384;DHT22;3733;47.994;8.820;2023-04-03T00:27:45;4.70;99.90
7384;DHT22;3733;47.994;8.820;2023-04-03T00:30:14;4.70;99.90
7384;DHT22;3733;47.994;8.820;2023-04-03T00:32:40;4.80;99.90
7384;DHT22;3733;47.994;8.820;2023-04-03T00:35:06;4.70;99.90
7384;DHT22;3733;47.994;8.820;2023-04-03T00:37:32;4.70;99.90
7384;DHT22;3733;47.994;8.820;2023-04-03T00:39:58;4.70;99.90
7384;DHT22;3733;47.994;8.820;2023-04-03T00:42:25;4.70;99.90
7384;DHT22;3733;47.994;8.820;2023-04-03T00:47:22;4.60;99.90
7384;DHT22;3733;47.994;8.820;2023-04-03T00:49:49;4.60;99.90
7384;DHT22;3733;47.994;8.820;2023-04-03T00:52:18;4.60;99.90
7384;DHT22;3733;47.994;8.820;2023-04-03T00:54:46;4.50;99.90
7384;DHT22;3733;47.994;8.820;2023-04-03T00:57:14;4.50;99.90
7384;DHT22;3733;47.994;8.820;2023-04-03T00:59:44;4.50;99.90
7384;DHT22;3733;47.994;8.820;2023-04-03T01:02:12;4.50;99.90
7384;DHT22;3733;47.994;8.820;2023-04-03T01:04:40;4.40;99.90
7384;DHT22;3733;47.994;8.820;2023-04-03T01:07:15;4.40;99.90
7384;DHT22;3733;47.994;8.820;2023-04-03T01:09:42;4.40;99.90
7384;DHT22;3733;47.994;8.820;2023-04-03T01:12:30;4.30;99.90
7384;DHT22;3733;47.994;8.820;2023-04-03T01:14:58;4.30;99.90
7384;DHT22;3733;47.994;8.820;2023-04-03T01:28:07;4.10;99.90
7384;DHT22;3733;47.994;8.820;2023-04-03T01:31:00;4.10;99.90
7384;DHT22;3733;47.994;8.820;2023-04-03T01:33:28;4.00;99.90
7384;DHT22;3733;47.994;8.820;2023-04-03T01:35:53;4.00;99.90
7384;DHT22;3733;47.994;8.820;2023-04-03T01:38:19;4.00;99.90
7384;DHT22;3733;47.994;8.820;2023-04-03T01:40:45;3.90;99.90
7384;DHT22;3733;47.994;8.820;2023-04-03T01:43:11;4.00;99.90
7384;DHT22;3733;47.994;8.820;2023-04-03T01:45:37;3.90;99.90
7384;DHT22;3733;47.994;8.820;2023-04-03T01:48:03;3.90;99.90
7384;DHT22;3733;47.994;8.820;2023-04-03T01:50:29;3.90;99.90
7384;DHT22;3733;47.994;8.820;2023-04-03T01:52:54;4.00;99.90
7384;DHT22;3733;47.994;8.820;2023-04-03T01:55:20;4.00;99.90
7384;DHT22;3733;47.994;8.820;2023-04-03T01:57:46;3.90;99.90
7384;DHT22;3733;47.994;8.820;2023-04-03T02:00:12;3.90;99.90
7384;DHT22;3733;47.994;8.820;2023-04-03T02:02:37;3.80;99.90
7384;DHT22;3733;47.994;8.820;2023-04-03T02:05:03;3.80;99.90
7384;DHT22;3733;47.994;8.820;2023-04-03T02:07:29;3.70;99.90
7384;DHT22;3733;47.994;8.820;2023-04-03T02:09:54;3.60;99.90
7384;DHT22;3733;47.994;8.820;2023-04-03T02:12:20;3.60;99.90
7384;DHT22;3733;47.994;8.820;2023-04-03T02:14:46;3.60;99.90
7384;DHT22;3733;47.994;8.820;2023-04-03T02:17:12;3.50;99.90
7384;DHT22;3733;47.994;8.820;2023-04-03T02:19:37;3.50;99.90
7384;DHT22;3733;47.994;8.820;2023-04-03T02:22:04;3.50;99.90
7384;DHT22;3733;47.994;8.820;2023-04-03T02:24:30;3.50;99.90
7384;DHT22;3733;47.994;8.820;2023-04-03T02:26:56;3.50;99.90
7384;DHT22;3733;47.994;8.820;2023-04-03T02:29:21;3.50;99.90
7384;DHT22;3733;47.994;8.820;2023-04-03T02:31:47;3.50;99.90
7384;DHT22;3733;47.994;8.820;2023-04-03T02:34:13;3.60;99.90
7384;DHT22;3733;47.994;8.820;2023-04-03T02:36:38;3.50;99.90
7384;DHT22;3733;47.994;8.820;2023-04-03T02:39:04;3.60;99.90
7384;DHT22;3733;47.994;8.820;2023-04-03T02:41:30;3.60;99.90
7384;DHT22;3733;47.994;8.820;2023-04-03T02:44:03;3.60;99.90
7384;DHT22;3733;47.994;8.820;2023-04-03T02:46:28;3.60;99.90
7384;DHT22;3733;47.994;8.820;2023-04-03T02:48:54;3.60;99.90
7384;DHT22;3733;47.994;8.820;2023-04-03T02:51:20;3.60;99.90
7384;DHT22;3733;47.994;8.820;2023-04-03T02:53:46;3.60;99.90
7384;DHT22;3733;47.994;8.820;2023-04-03T02:56:11;3.60;99.90
7384;DHT22;3733;47.994;8.820;2023-04-03T02:58:37;3.60;99.90
7384;DHT22;3733;47.994;8.820;2023-04-03T03:01:03;3.50;99.90
7384;DHT22;3733;47.994;8.820;2023-04-03T03:03:28;3.50;99.90
7384;DHT22;3733;47.994;8.820;2023-04-03T03:06:04;3.50;99.90
7384;DHT22;3733;47.994;8.820;2023-04-03T03:08:30;3.40;99.90
7384;DHT22;3733;47.994;8.820;2023-04-03T03:10:56;3.40;99.90
7384;DHT22;3733;47.994;8.820;2023-04-03T03:13:21;3.30;99.90
7384;DHT22;3733;47.994;8.820;2023-04-03T03:15:47;3.30;99.90
7384;DHT22;3733;47.994;8.820;2023-04-03T03:18:13;3.20;99.90
7384;DHT22;3733;47.994;8.820;2023-04-03T03:20:38;3.20;99.90
7384;DHT22;3733;47.994;8.820;2023-04-03T03:23:04;3.20;99.90
7384;DHT22;3733;47.994;8.820;2023-04-03T03:25:29;3.10;99.90
7384;DHT22;3733;47.994;8.820;2023-04-03T03:27:55;3.10;99.90
7384;DHT22;3733;47.994;8.820;2023-04-03T03:30:20;3.10;99.90
7384;DHT22;3733;47.994;8.820;2023-04-03T03:32:46;3.10;99.90
7384;DHT22;3733;47.994;8.820;2023-04-03T03:35:12;3.10;99.90
7384;DHT22;3733;47.994;8.820;2023-04-03T03:37:37;3.10;99.90
7384;DHT22;3733;47.994;8.820;2023-04-03T03:40:03;3.10;99.90
7384;DHT22;3733;47.994;8.820;2023-04-03T03:42:28;3.10;99.90
7384;DHT22;3733;47.994;8.820;2023-04-03T03:44:54;3.10;99.90
7384;DHT22;3733;47.994;8.820;2023-04-03T03:47:20;3.10;99.90
7384;DHT22;3733;47.994;8.820;2023-04-03T03:49:46;3.10;99.90
7384;DHT22;3733;47.994;8.820;2023-04-03T03:52:11;3.10;99.90
7384;DHT22;3733;47.994;8.820;2023-04-03T03:54:37;3.10;99.90
7384;DHT22;3733;47.994;8.820;2023-04-03T03:57:03;3.20;99.90
7384;DHT22;3733;47.994;8.820;2023-04-03T03:59:29;3.10;99.90
7384;DHT22;3733;47.994;8.820;2023-04-03T04:01:54;3.10;99.90
7384;DHT22;3733;47.994;8.820;2023-04-03T04:04:20;3.10;99.90
7384;DHT22;3733;47.994;8.820;2023-04-03T04:06:46;3.10;99.90
7384;DHT22;3733;47.994;8.820;2023-04-03T04:09:12;3.10;99.90
7384;DHT22;3733;47.994;8.820;2023-04-03T04:11:37;3.10;99.90
7384;DHT22;3733;47.994;8.820;2023-04-03T04:14:05;3.10;99.90
7384;DHT22;3733;47.994;8.820;2023-04-03T04:16:30;3.20;99.90
7384;DHT22;3733;47.994;8.820;2023-04-03T04:18:56;3.10;99.90
7384;DHT22;3733;47.994;8.820;2023-04-03T04:21:22;3.10;99.90
7384;DHT22;3733;47.994;8.820;2023-04-03T04:23:47;3.10;99.90
7384;DHT22;3733;47.994;8.820;2023-04-03T04:26:13;3.10;99.90
7384;DHT22;3733;47.994;8.820;2023-04-03T04:28:38;3.00;99.90
7384;DHT22;3733;47.994;8.820;2023-04-03T04:31:04;3.00;99.90
7384;DHT22;3733;47.994;8.820;2023-04-03T04:33:29;3.00;99.90
7384;DHT22;3733;47.994;8.820;2023-04-03T04:35:55;2.90;99.90
7384;DHT22;3733;47.994;8.820;2023-04-03T04:38:21;2.90;99.90
7384;DHT22;3733;47.994;8.820;2023-04-03T04:40:47;2.90;99.90
7384;DHT22;3733;47.994;8.820;2023-04-03T04:43:13;2.90;99.90
7384;DHT22;3733;47.994;8.820;2023-04-03T04:45:40;2.90;99.90
7384;DHT22;3733;47.994;8.820;2023-04-03T04:48:06;2.90;99.90
7384;DHT22;3733;47.994;8.820;2023-04-03T04:50:31;2.90;99.90
7384;DHT22;3733;47.994;8.820;2023-04-03T04:52:57;2.90;99.90
7384;DHT22;3733;47.994;8.820;2023-04-03T04:55:23;2.80;99.90
7384;DHT22;3733;47.994;8.820;2023-04-03T04:57:48;2.80;99.90
7384;DHT22;3733;47.994;8.820;2023-04-03T05:00:14;2.90;99.90
7384;DHT22;3733;47.994;8.820;2023-04-03T05:02:40;2.80;99.90
7384;DHT22;3733;47.994;8.820;2023-04-03T05:05:06;2.80;99.90
7384;DHT22;3733;47.994;8.820;2023-04-03T05:07:32;2.80;99.90
7384;DHT22;3733;47.994;8.820;2023-04-03T05:09:57;2.80;99.90
7384;DHT22;3733;47.994;8.820;2023-04-03T05:12:23;2.80;99.90
7384;DHT22;3733;47.994;8.820;2023-04-03T05:14:49;2.80;99.90
7384;DHT22;3733;47.994;8.820;2023-04-03T05:17:15;2.80;99.90
7384;DHT22;3733;47.994;8.820;2023-04-03T05:19:40;2.80;99.90
7384;DHT22;3733;47.994;8.820;2023-04-03T05:22:06;2.70;99.90
7384;DHT22;3733;47.994;8.820;2023-04-03T05:24:31;2.70;99.90
7384;DHT22;3733;47.994;8.820;2023-04-03T05:26:57;2.70;99.90
7384;DHT22;3733;47.994;8.820;2023-04-03T05:29:23;2.60;99.90
7384;DHT22;3733;47.994;8.820;2023-04-03T05:31:51;2.60;99.90
7384;DHT22;3733;47.994;8.820;2023-04-03T05:34:17;2.60;99.90
7384;DHT22;3733;47.994;8.820;2023-04-03T05:36:43;2.60;99.90
7384;DHT22;3733;47.994;8.820;2023-04-03T05:39:08;2.50;99.90
7384;DHT22;3733;47.994;8.820;2023-04-03T05:41:34;2.60;99.90
7384;DHT22;3733;47.994;8.820;2023-04-03T05:44:00;2.50;99.90
7384;DHT22;3733;47.994;8.820;2023-04-03T05:46:25;2.60;99.90
7384;DHT22;3733;47.994;8.820;2023-04-03T05:48:51;2.60;99.90
7384;DHT22;3733;47.994;8.820;2023-04-03T05:51:23;2.60;99.90
7384;DHT22;3733;47.994;8.820;2023-04-03T05:53:56;2.50;99.90
7384;DHT22;3733;47.994;8.820;2023-04-03T05:56:24;2.50;99.90
7384;DHT22;3733;47.994;8.820;2023-04-03T05:58:49;2.50;99.90
7384;DHT22;3733;47.994;8.820;2023-04-03T06:01:15;2.50;99.90
7384;DHT22;3733;47.994;8.820;2023-04-03T06:03:41;2.50;99.90
7384;DHT22;3733;47.994;8.820;2023-04-03T06:06:07;2.50;99.90
7384;DHT22;3733;47.994;8.820;2023-04-03T06:08:33;2.50;99.90
7384;DHT22;3733;47.994;8.820;2023-04-03T06:11:00;2.50;99.90
7384;DHT22;3733;47.994;8.820;2023-04-03T06:13:27;2.50;99.90
7384;DHT22;3733;47.994;8.820;2023-04-03T06:15:52;2.50;99.90
7384;DHT22;3733;47.994;8.820;2023-04-03T06:18:18;2.50;99.90
7384;DHT22;3733;47.994;8.820;2023-04-03T06:20:44;2.50;99.90
7384;DHT22;3733;47.994;8.820;2023-04-03T06:23:09;2.50;99.90
7384;DHT22;3733;47.994;8.820;2023-04-03T06:25:35;2.50;99.90
7384;DHT22;3733;47.994;8.820;2023-04-03T06:28:01;2.50;99.90
7384;DHT22;3733;47.994;8.820;2023-04-03T06:30:27;2.50;99.90
7384;DHT22;3733;47.994;8.820;2023-04-03T06:32:52;2.50;99.90
7384;DHT22;3733;47.994;8.820;2023-04-03T06:35:18;2.50;99.90
7384;DHT22;3733;47.994;8.820;2023-04-03T06:37:44;2.50;99.90
7384;DHT22;3733;47.994;8.820;2023-04-03T06:40:22;2.40;99.90
7384;DHT22;3733;47.994;8.820;2023-04-03T06:42:47;2.40;99.90
7384;DHT22;3733;47.994;8.820;2023-04-03T06:45:13;2.40;99.90
7384;DHT22;3733;47.994;8.820;2023-04-03T06:47:39;2.40;99.90
7384;DHT22;3733;47.994;8.820;2023-04-03T06:50:05;2.40;99.90
7384;DHT22;3733;47.994;8.820;2023-04-03T06:52:32;2.50;99.90
7384;DHT22;3733;47.994;8.820;2023-04-03T06:54:58;2.50;99.90
7384;DHT22;3733;47.994;8.820;2023-04-03T06:57:25;2.50;99.90
7384;DHT22;3733;47.994;8.820;2023-04-03T06:59:50;2.50;99.90
7384;DHT22;3733;47.994;8.820;2023-04-03T07:02:17;2.50;99.90
7384;DHT22;3733;47.994;8.820;2023-04-03T07:04:42;2.60;99.90
7384;DHT22;3733;47.994;8.820;2023-04-03T07:07:08;2.60;99.90
7384;DHT22;3733;47.994;8.820;2023-04-03T07:09:34;2.60;99.90
7384;DHT22;3733;47.994;8.820;2023-04-03T07:11:59;2.70;99.90
7384;DHT22;3733;47.994;8.820;2023-04-03T07:14:25;2.70;99.90
7384;DHT22;3733;47.994;8.820;2023-04-03T07:16:51;2.80;99.90
7384;DHT22;3733;47.994;8.820;2023-04-03T07:19:17;2.80;99.90
7384;DHT22;3733;47.994;8.820;2023-04-03T07:21:44;2.90;99.90
7384;DHT22;3733;47.994;8.820;2023-04-03T07:24:10;2.90;99.90
7384;DHT22;3733;47.994;8.820;2023-04-03T07:26:36;2.90;99.90
7384;DHT22;3733;47.994;8.820;2023-04-03T07:29:01;3.00;99.90
7384;DHT22;3733;47.994;8.820;2023-04-03T07:31:27;3.00;99.90
7384;DHT22;3733;47.994;8.820;2023-04-03T07:33:53;3.10;99.90
7384;DHT22;3733;47.994;8.820;2023-04-03T07:36:22;3.10;99.90
7384;DHT22;3733;47.994;8.820;2023-04-03T07:38:47;3.20;99.90
7384;DHT22;3733;47.994;8.820;2023-04-03T07:41:18;3.20;99.90
7384;DHT22;3733;47.994;8.820;2023-04-03T07:43:44;3.30;99.90
7384;DHT22;3733;47.994;8.820;2023-04-03T07:46:10;3.30;99.90
7384;DHT22;3733;47.994;8.820;2023-04-03T07:48:36;3.40;99.90
7384;DHT22;3733;47.994;8.820;2023-04-03T07:51:03;3.40;99.90
7384;DHT22;3733;47.994;8.820;2023-04-03T07:53:29;3.40;99.90
7384;DHT22;3733;47.994;8.820;2023-04-03T07:55:57;3.50;99.90
7384;DHT22;3733;47.994;8.820;2023-04-03T07:58:22;3.50;99.10
7384;DHT22;3733;47.994;8.820;2023-04-03T08:00:48;3.60;98.20
7384;DHT22;3733;47.994;8.820;2023-04-03T08:03:14;3.60;97.50
7384;DHT22;3733;47.994;8.820;2023-04-03T08:05:46;3.60;98.20
7384;DHT22;3733;47.994;8.820;2023-04-03T08:08:14;3.60;98.30
7384;DHT22;3733;47.994;8.820;2023-04-03T08:10:41;3.50;98.30
7384;DHT22;3733;47.994;8.820;2023-04-03T08:13:07;3.50;99.10
7384;DHT22;3733;47.994;8.820;2023-04-03T08:15:33;3.50;99.40
7384;DHT22;3733;47.994;8.820;2023-04-03T08:17:59;3.50;98.30
7384;DHT22;3733;47.994;8.820;2023-04-03T08:20:26;3.60;98.40
7384;DHT22;3733;47.994;8.820;2023-04-03T08:22:52;3.60;97.70
7384;DHT22;3733;47.994;8.820;2023-04-03T08:25:18;3.70;98.70
7384;DHT22;3733;47.994;8.820;2023-04-03T08:27:44;3.70;98.00
7384;DHT22;3733;47.994;8.820;2023-04-03T08:30:10;3.70;98.30
7384;DHT22;3733;47.994;8.820;2023-04-03T08:32:36;3.70;98.10
7384;DHT22;3733;47.994;8.820;2023-04-03T08:35:03;3.70;98.40
7384;DHT22;3733;47.994;8.820;2023-04-03T08:37:30;3.70;98.10
7384;DHT22;3733;47.994;8.820;2023-04-03T08:39:55;3.70;99.10
7384;DHT22;3733;47.994;8.820;2023-04-03T08:45:15;3.80;99.60
7384;DHT22;3733;47.994;8.820;2023-04-03T08:47:44;3.90;99.90
7384;DHT22;3733;47.994;8.820;2023-04-03T08:50:15;3.90;99.90
7384;DHT22;3733;47.994;8.820;2023-04-03T08:52:45;3.90;99.40
7384;DHT22;3733;47.994;8.820;2023-04-03T08:57:43;3.90;99.60
7384;DHT22;3733;47.994;8.820;2023-04-03T09:02:50;4.00;99.20
7384;DHT22;3733;47.994;8.820;2023-04-03T09:08:28;4.10;98.10
7384;DHT22;3733;47.994;8.820;2023-04-03T09:11:07;4.10;98.20
7384;DHT22;3733;47.994;8.820;2023-04-03T09:13:36;4.20;98.30
7384;DHT22;3733;47.994;8.820;2023-04-03T09:16:18;4.20;98.30
7384;DHT22;3733;47.994;8.820;2023-04-03T09:18:50;4.30;98.30
7384;DHT22;3733;47.994;8.820;2023-04-03T09:21:27;4.40;98.60
7384;DHT22;3733;47.994;8.820;2023-04-03T09:23:58;4.50;99.50
7384;DHT22;3733;47.994;8.820;2023-04-03T09:27:09;4.60;99.10
7384;DHT22;3733;47.994;8.820;2023-04-03T09:29:26;4.70;98.00
7384;DHT22;3733;47.994;8.820;2023-04-03T09:32:49;4.80;95.70
7384;DHT22;3733;47.994;8.820;2023-04-03T09:37:45;5.10;95.60
7384;DHT22;3733;47.994;8.820;2023-04-03T09:42:59;5.20;92.90
7384;DHT22;3733;47.994;8.820;2023-04-03T09:45:30;5.20;93.80
7384;DHT22;3733;47.994;8.820;2023-04-03T09:53:36;5.20;91.40
7384;DHT22;3733;47.994;8.820;2023-04-03T09:56:26;5.20;91.40
7384;DHT22;3733;47.994;8.820;2023-04-03T09:59:08;5.30;92.50
7384;DHT22;3733;47.994;8.820;2023-04-03T10:01:39;5.50;92.60
7384;DHT22;3733;47.994;8.820;2023-04-03T10:06:41;5.30;88.10
7384;DHT22;3733;47.994;8.820;2023-04-03T10:09:24;5.20;87.60
7384;DHT22;3733;47.994;8.820;2023-04-03T10:14:40;5.10;89.20
7384;DHT22;3733;47.994;8.820;2023-04-03T10:17:24;5.00;90.10
7384;DHT22;3733;47.994;8.820;2023-04-03T10:23:42;4.80;90.70
7384;DHT22;3733;47.994;8.820;2023-04-03T10:42:06;5.10;92.50
7384;DHT22;3733;47.994;8.820;2023-04-03T10:44:52;5.20;91.40
7384;DHT22;3733;47.994;8.820;2023-04-03T10:47:46;5.20;92.40
7384;DHT22;3733;47.994;8.820;2023-04-03T10:58:34;5.10;91.30
7384;DHT22;3733;47.994;8.820;2023-04-03T11:01:09;5.00;90.00
7384;DHT22;3733;47.994;8.820;2023-04-03T11:03:44;5.00;88.00
7384;DHT22;3733;47.994;8.820;2023-04-03T11:06:13;4.90;90.10
7384;DHT22;3733;47.994;8.820;2023-04-03T11:09:02;4.90;90.20
7384;DHT22;3733;47.994;8.820;2023-04-03T11:11:38;5.00;90.30
7384;DHT22;3733;47.994;8.820;2023-04-03T11:14:28;5.00;89.20
7384;DHT22;3733;47.994;8.820;2023-04-03T11:22:41;5.20;84.50
7384;DHT22;3733;47.994;8.820;2023-04-03T11:27:56;5.40;82.60
7384;DHT22;3733;47.994;8.820;2023-04-03T11:36:03;5.60;76.30
7384;DHT22;3733;47.994;8.820;2023-04-03T11:38:35;5.60;73.30
7384;DHT22;3733;47.994;8.820;2023-04-03T11:41:05;5.60;72.30
7384;DHT22;3733;47.994;8.820;2023-04-03T11:43:33;5.60;69.50
7384;DHT22;3733;47.994;8.820;2023-04-03T11:46:03;5.70;72.60
7384;DHT22;3733;47.994;8.820;2023-04-03T11:53:42;6.00;65.30
7384;DHT22;3733;47.994;8.820;2023-04-03T11:56:29;6.00;64.90
7384;DHT22;3733;47.994;8.820;2023-04-03T12:04:12;5.80;65.20
7384;DHT22;3733;47.994;8.820;2023-04-03T12:09:29;5.50;63.50
7384;DHT22;3733;47.994;8.820;2023-04-03T12:11:57;5.40;63.50
7384;DHT22;3733;47.994;8.820;2023-04-03T12:14:25;5.40;64.30
7384;DHT22;3733;47.994;8.820;2023-04-03T12:16:53;5.40;63.80
7384;DHT22;3733;47.994;8.820;2023-04-03T12:19:38;5.40;63.30
7384;DHT22;3733;47.994;8.820;2023-04-03T12:22:14;5.40;65.30
7384;DHT22;3733;47.994;8.820;2023-04-03T12:24:43;5.40;66.50
7384;DHT22;3733;47.994;8.820;2023-04-03T12:38:14;5.50;64.30
7384;DHT22;3733;47.994;8.820;2023-04-03T12:46:22;5.50;61.70
7384;DHT22;3733;47.994;8.820;2023-04-03T12:48:54;5.40;61.60
7384;DHT22;3733;47.994;8.820;2023-04-03T12:51:26;5.30;61.20
7384;DHT22;3733;47.994;8.820;2023-04-03T12:53:58;5.30;62.80
7384;DHT22;3733;47.994;8.820;2023-04-03T12:56:31;5.20;62.30
7384;DHT22;3733;47.994;8.820;2023-04-03T13:01:43;5.10;64.80
7384;DHT22;3733;47.994;8.820;2023-04-03T13:04:10;5.10;64.40
7384;DHT22;3733;47.994;8.820;2023-04-03T13:06:42;5.20;64.50
7384;DHT22;3733;47.994;8.820;2023-04-03T13:09:23;5.20;64.80
7384;DHT22;3733;47.994;8.820;2023-04-03T13:11:50;5.30;64.70
7384;DHT22;3733;47.994;8.820;2023-04-03T13:14:25;5.40;63.90
7384;DHT22;3733;47.994;8.820;2023-04-03T13:16:59;5.40;61.60
7384;DHT22;3733;47.994;8.820;2023-04-03T13:19:27;5.50;61.20
7384;DHT22;3733;47.994;8.820;2023-04-03T13:22:01;5.60;60.20
7384;DHT22;3733;47.994;8.820;2023-04-03T13:24:29;5.70;60.30
7384;DHT22;3733;47.994;8.820;2023-04-03T13:26:56;5.80;59.60
7384;DHT22;3733;47.994;8.820;2023-04-03T13:29:29;5.80;57.30
7384;DHT22;3733;47.994;8.820;2023-04-03T13:31:56;5.80;57.10
7384;DHT22;3733;47.994;8.820;2023-04-03T13:34:23;5.70;56.90
7384;DHT22;3733;47.994;8.820;2023-04-03T13:41:46;5.50;58.20
7384;DHT22;3733;47.994;8.820;2023-04-03T13:46:42;5.40;59.90
7384;DHT22;3733;47.994;8.820;2023-04-03T13:51:43;5.40;61.40
7384;DHT22;3733;47.994;8.820;2023-04-03T13:54:22;5.40;60.70
7384;DHT22;3733;47.994;8.820;2023-04-03T13:56:54;5.40;60.10
7384;DHT22;3733;47.994;8.820;2023-04-03T13:59:22;5.30;60.20
7384;DHT22;3733;47.994;8.820;2023-04-03T14:04:30;5.30;61.40
7384;DHT22;3733;47.994;8.820;2023-04-03T14:06:56;5.20;62.40
7384;DHT22;3733;47.994;8.820;2023-04-03T14:09:23;5.20;61.70
7384;DHT22;3733;47.994;8.820;2023-04-03T14:11:52;5.10;59.40
7384;DHT22;3733;47.994;8.820;2023-04-03T14:14:26;5.20;59.40
7384;DHT22;3733;47.994;8.820;2023-04-03T14:16:55;5.20;59.50
7384;DHT22;3733;47.994;8.820;2023-04-03T14:19:34;5.20;58.40
7384;DHT22;3733;47.994;8.820;2023-04-03T14:22:10;5.10;58.40
7384;DHT22;3733;47.994;8.820;2023-04-03T14:24:36;5.10;58.40
7384;DHT22;3733;47.994;8.820;2023-04-03T14:27:01;5.10;58.30
7384;DHT22;3733;47.994;8.820;2023-04-03T14:29:27;5.10;58.20
7384;DHT22;3733;47.994;8.820;2023-04-03T14:31:53;5.00;58.70
7384;DHT22;3733;47.994;8.820;2023-04-03T14:34:18;5.00;59.50
7384;DHT22;3733;47.994;8.820;2023-04-03T14:36:45;5.00;59.90
7384;DHT22;3733;47.994;8.820;2023-04-03T14:39:17;5.00;58.80
7384;DHT22;3733;47.994;8.820;2023-04-03T14:41:44;5.00;58.40
7384;DHT22;3733;47.994;8.820;2023-04-03T14:44:10;5.00;57.70
7384;DHT22;3733;47.994;8.820;2023-04-03T14:46:39;5.00;58.00
7384;DHT22;3733;47.994;8.820;2023-04-03T14:49:17;5.10;57.10
7384;DHT22;3733;47.994;8.820;2023-04-03T14:51:43;5.10;56.80
7384;DHT22;3733;47.994;8.820;2023-04-03T14:54:18;5.10;56.80
7384;DHT22;3733;47.994;8.820;2023-04-03T14:56:44;5.10;56.70
7384;DHT22;3733;47.994;8.820;2023-04-03T14:59:14;5.20;56.80
7384;DHT22;3733;47.994;8.820;2023-04-03T15:01:40;5.20;56.80
7384;DHT22;3733;47.994;8.820;2023-04-03T15:04:14;5.20;57.60
7384;DHT22;3733;47.994;8.820;2023-04-03T15:06:41;5.20;56.80
7384;DHT22;3733;47.994;8.820;2023-04-03T15:09:18;5.10;56.20
7384;DHT22;3733;47.994;8.820;2023-04-03T15:11:44;5.10;56.20
7384;DHT22;3733;47.994;8.820;2023-04-03T15:14:10;5.00;56.00
7384;DHT22;3733;47.994;8.820;2023-04-03T15:16:36;5.00;56.30
7384;DHT22;3733;47.994;8.820;2023-04-03T15:19:01;5.00;55.90
7384;DHT22;3733;47.994;8.820;2023-04-03T15:21:27;4.90;56.20
7384;DHT22;3733;47.994;8.820;2023-04-03T15:23:53;4.90;56.50
7384;DHT22;3733;47.994;8.820;2023-04-03T15:26:19;4.90;57.40
7384;DHT22;3733;47.994;8.820;2023-04-03T15:28:46;4.90;58.00
7384;DHT22;3733;47.994;8.820;2023-04-03T15:31:11;4.90;58.00
7384;DHT22;3733;47.994;8.820;2023-04-03T15:33:38;4.90;58.30
7384;DHT22;3733;47.994;8.820;2023-04-03T15:36:04;4.90;57.80
7384;DHT22;3733;47.994;8.820;2023-04-03T15:38:30;4.90;57.70
7384;DHT22;3733;47.994;8.820;2023-04-03T15:40:55;4.90;58.10
7384;DHT22;3733;47.994;8.820;2023-04-03T15:43:21;5.00;59.00
7384;DHT22;3733;47.994;8.820;2023-04-03T15:45:49;5.10;60.00
7384;DHT22;3733;47.994;8.820;2023-04-03T15:48:15;5.20;60.40
7384;DHT22;3733;47.994;8.820;2023-04-03T15:50:41;5.30;59.40
7384;DHT22;3733;47.994;8.820;2023-04-03T15:53:07;5.40;59.30
7384;DHT22;3733;47.994;8.820;2023-04-03T15:55:34;5.40;58.60
7384;DHT22;3733;47.994;8.820;2023-04-03T15:58:00;5.30;58.50
7384;DHT22;3733;47.994;8.820;2023-04-03T16:00:27;5.20;59.10
7384;DHT22;3733;47.994;8.820;2023-04-03T16:02:59;5.10;59.20
7384;DHT22;3733;47.994;8.820;2023-04-03T16:05:26;5.00;60.00
7384;DHT22;3733;47.994;8.820;2023-04-03T16:07:52;5.00;60.10
7384;DHT22;3733;47.994;8.820;2023-04-03T16:10:19;4.90;59.80
7384;DHT22;3733;47.994;8.820;2023-04-03T16:12:45;4.90;60.00
7384;DHT22;3733;47.994;8.820;2023-04-03T16:15:10;4.90;60.40
7384;DHT22;3733;47.994;8.820;2023-04-03T16:17:37;4.80;59.30
7384;DHT22;3733;47.994;8.820;2023-04-03T16:20:05;4.70;59.90
7384;DHT22;3733;47.994;8.820;2023-04-03T16:22:32;4.70;59.40
7384;DHT22;3733;47.994;8.820;2023-04-03T16:24:58;4.60;59.10
7384;DHT22;3733;47.994;8.820;2023-04-03T16:27:24;4.60;59.10
7384;DHT22;3733;47.994;8.820;2023-04-03T16:29:54;4.60;59.00
7384;DHT22;3733;47.994;8.820;2023-04-03T16:32:20;4.60;58.60
7384;DHT22;3733;47.994;8.820;2023-04-03T16:34:46;4.50;58.60
7384;DHT22;3733;47.994;8.820;2023-04-03T16:37:12;4.50;58.60
7384;DHT22;3733;47.994;8.820;2023-04-03T16:39:37;4.50;58.30
7384;DHT22;3733;47.994;8.820;2023-04-03T16:42:03;4.50;58.40
7384;DHT22;3733;47.994;8.820;2023-04-03T16:44:29;4.60;57.90
7384;DHT22;3733;47.994;8.820;2023-04-03T16:46:54;4.60;57.80
7384;DHT22;3733;47.994;8.820;2023-04-03T16:49:20;4.70;57.90
7384;DHT22;3733;47.994;8.820;2023-04-03T16:51:47;4.70;58.20
7384;DHT22;3733;47.994;8.820;2023-04-03T16:54:13;4.80;58.10
7384;DHT22;3733;47.994;8.820;2023-04-03T16:56:39;4.90;57.10
7384;DHT22;3733;47.994;8.820;2023-04-03T16:59:05;4.90;57.20
7384;DHT22;3733;47.994;8.820;2023-04-03T17:01:31;4.90;55.80
7384;DHT22;3733;47.994;8.820;2023-04-03T17:03:57;4.90;55.50
7384;DHT22;3733;47.994;8.820;2023-04-03T17:06:23;4.80;54.80
7384;DHT22;3733;47.994;8.820;2023-04-03T17:08:50;4.70;54.70
7384;DHT22;3733;47.994;8.820;2023-04-03T17:11:17;4.70;55.20
7384;DHT22;3733;47.994;8.820;2023-04-03T17:13:42;4.60;56.10
7384;DHT22;3733;47.994;8.820;2023-04-03T17:16:12;4.60;56.00
7384;DHT22;3733;47.994;8.820;2023-04-03T17:18:39;4.60;55.80
7384;DHT22;3733;47.994;8.820;2023-04-03T17:21:05;4.60;55.70
7384;DHT22;3733;47.994;8.820;2023-04-03T17:23:31;4.60;55.90
7384;DHT22;3733;47.994;8.820;2023-04-03T17:26:00;4.50;56.10
7384;DHT22;3733;47.994;8.820;2023-04-03T17:28:26;4.50;57.30
7384;DHT22;3733;47.994;8.820;2023-04-03T17:30:55;4.40;58.10
7384;DHT22;3733;47.994;8.820;2023-04-03T17:33:21;4.40;58.70
7384;DHT22;3733;47.994;8.820;2023-04-03T17:35:47;4.30;59.50
7384;DHT22;3733;47.994;8.820;2023-04-03T17:38:13;4.30;60.40
7384;DHT22;3733;47.994;8.820;2023-04-03T17:40:39;4.20;61.50
7384;DHT22;3733;47.994;8.820;2023-04-03T17:43:04;4.20;62.50
7384;DHT22;3733;47.994;8.820;2023-04-03T17:45:30;4.20;62.30
7384;DHT22;3733;47.994;8.820;2023-04-03T17:47:56;4.10;61.40
7384;DHT22;3733;47.994;8.820;2023-04-03T17:50:22;4.10;62.10
7384;DHT22;3733;47.994;8.820;2023-04-03T17:52:47;4.10;62.70
7384;DHT22;3733;47.994;8.820;2023-04-03T17:55:13;4.10;62.30
7384;DHT22;3733;47.994;8.820;2023-04-03T17:57:42;4.10;62.70
7384;DHT22;3733;47.994;8.820;2023-04-03T18:00:08;4.10;63.20
7384;DHT22;3733;47.994;8.820;2023-04-03T18:02:34;4.10;63.20
7384;DHT22;3733;47.994;8.820;2023-04-03T18:05:00;4.10;62.50
7384;DHT22;3733;47.994;8.820;2023-04-03T18:07:26;4.00;62.30
7384;DHT22;3733;47.994;8.820;2023-04-03T18:09:54;4.00;62.70
7384;DHT22;3733;47.994;8.820;2023-04-03T18:12:21;4.00;63.20
7384;DHT22;3733;47.994;8.820;2023-04-03T18:14:47;3.90;63.00
7384;DHT22;3733;47.994;8.820;2023-04-03T18:17:13;3.90;62.30
7384;DHT22;3733;47.994;8.820;2023-04-03T18:19:39;3.80;63.40
7384;DHT22;3733;47.994;8.820;2023-04-03T18:22:10;3.80;64.20
7384;DHT22;3733;47.994;8.820;2023-04-03T18:24:37;3.80;64.30
7384;DHT22;3733;47.994;8.820;2023-04-03T18:27:10;3.80;65.60
7384;DHT22;3733;47.994;8.820;2023-04-03T18:29:38;3.80;66.40